Terminal Aerodrome Forecast
Issued by NWS Cleveland, OH

Home | Current Version | Previous Version | Graphics & Text | Print | Product List | Glossary On
Versions: 1 2 3 4 5 6 7 8 9 10 11 12 13 14 15 16 17 18
140
FTUS41 KCLE 220538
TAFYNG
TAF
KYNG 220538Z 2206/2306 20005KT P6SM FEW045 SCT200
     FM221500 22011KT P6SM SCT040 BKN200
     FM221800 22012KT P6SM -TSRA SCT040CB BKN090
     FM222200 23014KT P6SM -SHRA VCTS SCT035CB BKN090
     FM230100 27008KT P6SM BKN035
     FM230300 30007KT P6SM BKN025
     FM230500 31006KT P6SM SCT045=

USA.gov is the U.S. government's official web portal to all federal, state and local government web resources and services.